Indianapolis, Indiana
Traffic Map
Current Weather Conditions
Indianapolis, Indiana
Overcast
Overcast
21°
Feels Like: 21°
Wind Chill: 21° Ceiling: 25000
Heat Index: 21° Visibility: 10mi
Dew Point: 16° Wind: 8mph
Humidity: 73% Direction: 120° (ESE)
Pressure: 30.03in Gusts: 0mph
Raw Report DataKIND 290754Z 12007KT 10SM OVC250 21/16 A3003 RMK AO2 SLP160 T02110161
Traffic Incident Summary
Active as of:
Severity:
Category:
InformationThere was an issue retrieving the traffic information for this location. Please try a different location or try again shortly.
Advertisements
Track Severe Weather on mobile